Argenta, Illinois
Current Conditions -  °F | °C
As of 6:54 AM on Wednesday 22 Oct 2014 (Local Time) from KDEC Reporting Station
Clear Clear  
Wind Chill: 33°   Ceiling: Unl
Heat Index: 37°   Visibility: 8mi
Dew Point: 34°   Wind: 5mph
Humidity: 89%   Direction: 40°NE
Pressure: 30.31"   Gusts: NA
Location:  39.98°N, 88.82°W
Report Text: KDEC 221154Z 04004KT 8SM CLR 03/01 A3031 RMK AO2 SLP269 T00280011 10044 20011 53016
Loading
Personal Weather Stations






























Interactive Weather Map
Tropical Storm Tracking
New forecast layout! Learn more

10-Day Weather Forecast

Advertisements
Track Severe Weather on mobile